• Join FlightAware (Why Join?)
  • Login
  • US Flag 
01:31PM EDT


 

Airport Tracker/Info


-or-


 

Live Flight TrackerFlight Track Log ✈ SWA3313 ✈ 25-Apr-2013 ✈ KMHT - KBWI

Flight Track Log - Related Links

Times and Time Zones

All times are in EDT time to prevent confusion due to time zone crossing. See the SWA3313 flight status page for this flight to view local times or setup timezone preferences in your user account.

Time Position Orientation Groundspeed Altitude Reporting Facility
EDT Latitude Longitude Course Direction KTS MPH feet Rate Location/Type
05:35PM 42.9500 -71.4333 16° North 160 184 1,200  Level KA90
05:37PM 43.0314 -71.4006 16° North 241 277 5,600 2,460 Climbing Boston Center
05:38PM 43.0556 -71.3119 70° East 236 272 8,400 3,000 Climbing Boston Center
05:39PM 43.0564 -71.1956 89° East 268 308 11,700 3,420 Climbing Boston Center
05:40PM 43.0694 -71.0644 82° East 326 375 15,300 3,060 Climbing Boston Center
05:41PM 43.0469 -70.9372 104° East 339 390 17,900 2,040 Climbing Boston Center
05:42PM 42.9608 -70.8911 159° South 310 357 19,400 2,280 Climbing Boston Center
05:43PM 42.8697 -70.9358 200° South 281 323 22,500 1,800 Climbing Boston Center
05:44PM 42.7786 -70.9833 201° Southwest 306 352 23,000 1,200 Climbing Boston Center
05:45PM 42.7108 -71.0639 221° Southwest 329 379 24,900 960 Climbing Boston Center
05:46PM 42.6664 -71.1694 240° Southwest 329 379 25,000 300 Climbing Boston Center
05:47PM 42.6175 -71.2778 239° Southwest 344 396 25,500 960 Climbing Boston Center
05:48PM 42.5622 -71.3914 237° Southwest 355 409 27,000 1,200 Climbing Boston Center
05:49PM 42.5069 -71.5108 238° Southwest 367 422 28,000 480 Climbing Boston Center
05:50PM 42.4619 -71.6042 237° Southwest 372 428 28,000 480 Level Boston Center
05:51PM 42.3961 -71.7400 237° Southwest 367 422 29,000 1,920 Climbing Boston Center
05:52PM 42.3447 -71.8475 237° Southwest 367 422 31,900 2,400 Climbing Boston Center
05:53PM 42.2931 -71.9544 237° Southwest 354 407 33,800 1,020 Climbing Boston Center
05:54PM 42.2372 -72.0586 234° Southwest 349 402 34,000 60 Climbing Boston Center
05:55PM 42.1769 -72.1628 232° Southwest 354 407 34,000  Level Boston Center
05:56PM 42.1147 -72.2611 230° Southwest 354 407 34,000  Level Boston Center
05:57PM 42.0522 -72.3619 230° Southwest 354 407 34,000  Level Boston Center
05:58PM 41.9878 -72.4625 229° Southwest 354 407 34,000  Level Boston Center
05:59PM 41.9272 -72.5628 231° Southwest 354 407 34,000  Level Boston Center
06:00PM 41.8603 -72.6714 230° Southwest 354 407 34,000  Level Boston Center
06:01PM 41.7997 -72.7658 229° Southwest 367 422 34,000  Level Boston Center
06:02PM 41.7328 -72.8714 230° Southwest 372 428 34,000  Level Boston Center
06:03PM 41.6697 -72.9736 230° Southwest 372 428 34,000  Level Boston Center
06:05PM 41.5089 -73.2258 230° Southwest 361 415 34,000  Level New York Center
06:06PM 41.4442 -73.3286 230° Southwest 366 421 34,000  Level New York Center
06:07PM 41.3794 -73.4311 230° Southwest 371 427 34,000  Level New York Center
06:08PM 41.3125 -73.5361 230° Southwest 371 427 34,000  Level New York Center
06:09PM 41.2475 -73.6383 230° Southwest 376 433 34,000  Level New York Center
06:10PM 41.1844 -73.7458 232° Southwest 371 427 34,000  Level New York Center
06:11PM 41.1214 -73.8506 231° Southwest 371 427 34,000  Level New York Center
06:12PM 41.0603 -73.9550 232° Southwest 365 420 34,000  Level New York Center
06:13PM 40.9969 -74.0619 232° Southwest 365 420 34,000 -540 Level New York Center
06:14PM 40.9422 -74.1556 232° Southwest 365 420 33,000 -1,500 Descending New York Center
06:15PM 40.8814 -74.2483 229° Southwest 358 412 31,000 -2,040 Descending New York Center
06:16PM 40.8244 -74.3414 231° Southwest 340 391 29,000 -1,560 Descending New York Center
06:17PM 40.7717 -74.4319 232° Southwest 335 386 28,000 -900 Descending New York Center
06:18PM 40.7122 -74.5272 231° Southwest 335 386 27,200 -960 Descending New York Center
06:19PM 40.6572 -74.6200 232° Southwest 335 386 26,100 -1,080 Descending New York Center
06:20PM 40.6042 -74.7100 232° Southwest 335 386 25,100 -1,200 Descending New York Center
06:21PM 40.5428 -74.8047 230° Southwest 335 386 23,800 -1,200 Descending New York Center
06:22PM 40.4792 -74.8911 226° Southwest 340 391 22,800 -1,020 Descending New York Center
06:23PM 40.4178 -74.9772 227° Southwest 340 391 21,800 -1,020 Descending New York Center
06:24PM 40.3542 -75.0661 227° Southwest 335 386 20,800 -1,020 Descending New York Center
06:25PM 40.2925 -75.1547 228° Southwest 335 386 19,800 -1,020 Descending New York Center
06:26PM 40.2247 -75.2456 226° Southwest 330 380 18,800 -960 Descending New York Center
06:27PM 40.1608 -75.3339 227° Southwest 335 386 18,000 -420 Descending New York Center
06:28PM 40.1033 -75.4142 227° Southwest 329 379 18,000  Level New York Center
06:29PM 40.0417 -75.4969 226° Southwest 329 379 18,000  Level New York Center
06:30PM 39.9822 -75.5794 227° Southwest 329 379 18,000 -120 Level New York Center
06:31PM 39.9289 -75.6569 228° Southwest 329 379 17,800 -720 Descending New York Center
06:32PM 39.8728 -75.7558 234° Southwest 323 372 16,700 -900 Descending New York Center
06:33PM 39.8292 -75.8447 237° Southwest 323 372 16,100 -1,140 Descending New York Center
06:35PM 39.7333 -76.0333 237° Southwest 313 360 13,500 -1,440 Descending Potomac TRACON
06:36PM 39.6833 -76.1167 232° Southwest 305 351 12,000 -1,320 Descending Potomac TRACON
06:37PM 39.6500 -76.2167 247° West 276 318 10,900 -1,140 Descending Potomac TRACON
06:38PM 39.5833 -76.2667 210° Southwest 271 312 9,800 -1,080 Descending Potomac TRACON
06:39PM 39.5333 -76.3333 226° Southwest 264 304 8,900 -960 Descending Potomac TRACON
06:41PM 39.4833 -76.4833 247° West 270 311 7,000 -1,140 Descending Potomac TRACON
06:42PM 39.4000 -76.5000 189° South 266 306 5,400 -1,440 Descending Potomac TRACON
06:43PM 39.3333 -76.5167 191° South 264 304 4,100 -720 Descending Potomac TRACON
06:44PM 39.2667 -76.5167 180° South 237 273 4,000  Descending Potomac TRACON
06:45PM 39.2000 -76.5167 180° South 227 261 4,100  Climbing Potomac TRACON
06:46PM 39.1333 -76.5000 169° South 198 228 4,000 -300 Descending Potomac TRACON
06:47PM 39.1000 -76.5000 180° South 191 220 3,600 -540 Descending Potomac TRACON
06:48PM 39.0667 -76.5667 237° Southwest 183 211 3,000 -600 Descending Potomac TRACON
06:49PM 39.1000 -76.6000 322° Northwest 157 181 2,400 -960 Descending Potomac TRACON
06:50PM 39.1333 -76.6333 322° Northwest 148 170 1,000 -1,320 Descending Potomac TRACON